»·PEaware :: N5276P KLAX-KSNA

N5276P :: KLAX-KSNA

FLIGHT INFORMATION

Flight Status: Arrived
Operator: Privately registered:
United States
More flights under this callsign
Pilot: James F. (26163)
Aircraft: CESSNA 172 SKYHAWK
(C172)
More flights by this aircraft type
Origin: KLAX Los Angeles Intl
United States
Destination: KSNA John Wayne-Orange Co
United States
More flights between these airports :: More routes between these airports
Route: +SLI8 SLI
File this flight plan on PilotEdge
Remarks: I-6
Altitude:
(Current/Filed)
4,000ft
Speed:
(Current/Filed)
110kts
Departed: 27-Nov-19 10:16 AM
Arrived: 27-Nov-19 11:11 AM
Distance/Time
Traveled:
31nm/0:54
Distance/Time
To Go:
Arrived

Flight Plot

Page will automatically refresh every two minutes.

Flight plan parsing failed; only flown route is shown


Map Options




Map Legend


Flown Route
Filed Route
Departure Airport
Arrival Airport
Navaid (VOR, NDB)
Fix

Horizontal Profiles

Position Reports

Time Latitude Longitude Heading Altitude Ground
Speed
27-Nov-19 09:27 33.941905 -118.392388 263 102ft 0kts
27-Nov-19 09:29 33.941905 -118.392388 263 102ft 0kts
27-Nov-19 09:30 33.941905 -118.392388 263 102ft 0kts
27-Nov-19 09:31 33.941905 -118.392388 263 102ft 0kts
27-Nov-19 09:32 33.941134 -118.391385 135 102ft 12kts
27-Nov-19 09:33 33.941541 -118.387130 148 99ft 0kts
27-Nov-19 09:34 33.941541 -118.387130 148 99ft 0kts
27-Nov-19 09:35 33.941541 -118.387130 148 99ft 0kts
27-Nov-19 09:36 33.941541 -118.387130 148 99ft 0kts
27-Nov-19 09:37 33.941541 -118.387130 148 99ft 0kts
27-Nov-19 09:38 33.941541 -118.387130 148 99ft 0kts
27-Nov-19 09:39 33.941541 -118.387130 148 99ft 0kts
27-Nov-19 09:40 33.941541 -118.387130 148 99ft 0kts
27-Nov-19 09:43 33.942283 -118.387270 353 99ft 0kts
27-Nov-19 09:44 33.942283 -118.387270 353 99ft 0kts
27-Nov-19 09:45 33.942283 -118.387270 353 99ft 0kts
27-Nov-19 09:45 33.942283 -118.387270 353 99ft 0kts
27-Nov-19 09:47 33.942283 -118.387270 353 99ft 0kts
27-Nov-19 09:48 33.942283 -118.387270 353 99ft 0kts
27-Nov-19 09:48 33.942283 -118.387270 353 99ft 0kts
27-Nov-19 09:51 33.933621 -118.399879 174 112ft 0kts
27-Nov-19 09:52 33.933621 -118.399879 174 112ft 0kts
27-Nov-19 09:54 33.933621 -118.399879 174 112ft 0kts
27-Nov-19 09:54 33.933621 -118.399879 174 112ft 0kts
27-Nov-19 10:00 33.933621 -118.399879 174 112ft 0kts
27-Nov-19 10:01 33.933621 -118.399879 174 112ft 0kts
27-Nov-19 10:02 33.933621 -118.399879 174 112ft 0kts
27-Nov-19 10:03 33.933621 -118.399879 174 112ft 0kts
27-Nov-19 10:04 33.933621 -118.399879 174 112ft 0kts
27-Nov-19 10:05 33.933621 -118.399879 174 112ft 0kts
27-Nov-19 10:06 33.933621 -118.399879 174 112ft 0kts
27-Nov-19 10:07 33.933621 -118.399879 174 112ft 0kts
27-Nov-19 10:08 33.933621 -118.399879 174 112ft 0kts
27-Nov-19 10:09 33.933904 -118.400136 356 112ft 4kts
27-Nov-19 10:10 33.934729 -118.395852 86 106ft 22kts
27-Nov-19 10:11 33.935639 -118.387480 85 99ft 27kts
27-Nov-19 10:12 33.936235 -118.382541 310 96ft 7kts
27-Nov-19 10:13 33.936404 -118.382660 337 96ft 0kts
27-Nov-19 10:14 33.936404 -118.382660 337 96ft 0kts
27-Nov-19 10:15 33.936706 -118.389754 256 128ft 79kts
27-Nov-19 10:16 33.935692 -118.416951 261 933ft 81kts
27-Nov-19 10:17 33.935734 -118.443797 248 1687ft 77kts
27-Nov-19 10:18 33.922263 -118.459671 211 2394ft 67kts
27-Nov-19 10:19 33.908442 -118.473578 212 3076ft 65kts
27-Nov-19 10:20 33.894974 -118.486358 212 3742ft 59kts
27-Nov-19 10:21 33.881175 -118.499011 212 3980ft 64kts
27-Nov-19 10:22 33.867126 -118.512580 212 3985ft 63kts
27-Nov-19 10:23 33.852391 -118.526163 212 3988ft 70kts
27-Nov-19 10:24 33.833991 -118.530209 170 3988ft 82kts
27-Nov-19 10:25 33.810113 -118.522511 172 3986ft 89kts
27-Nov-19 10:26 33.786563 -118.514300 171 3987ft 87kts
27-Nov-19 10:27 33.763417 -118.506034 170 3974ft 87kts
27-Nov-19 10:28 33.740279 -118.497980 171 3976ft 86kts
27-Nov-19 10:29 33.716990 -118.490422 171 3971ft 87kts
27-Nov-19 10:30 33.693230 -118.483340 170 3975ft 88kts
27-Nov-19 10:31 33.670103 -118.475709 168 3966ft 87kts
27-Nov-19 10:32 33.667698 -118.444989 79 3980ft 120kts
27-Nov-19 10:33 33.672140 -118.406430 103 3959ft 116kts
27-Nov-19 10:34 33.673684 -118.367850 98 4013ft 116kts
27-Nov-19 10:35 33.673111 -118.329067 104 3976ft 113kts
27-Nov-19 10:36 33.681430 -118.291509 72 4017ft 122kts
27-Nov-19 10:37 33.698042 -118.255453 67 3999ft 123kts
27-Nov-19 10:38 33.713133 -118.219719 64 3985ft 119kts
27-Nov-19 10:39 33.727316 -118.185058 68 4047ft 115kts
27-Nov-19 10:40 33.744056 -118.151820 59 4044ft 119kts
27-Nov-19 10:41 33.758033 -118.116900 73 4029ft 117kts
27-Nov-19 10:42 33.772261 -118.080741 69 3982ft 118kts
27-Nov-19 10:43 33.786976 -118.045648 70 3982ft 116kts
27-Nov-19 10:44 33.801061 -118.010606 69 3982ft 115kts
27-Nov-19 10:45 33.815077 -117.975922 70 3982ft 115kts
27-Nov-19 10:46 33.829173 -117.940882 71 3982ft 117kts
27-Nov-19 10:47 33.843397 -117.905439 72 3982ft 118kts
27-Nov-19 10:48 33.857748 -117.869669 72 3981ft 119kts
27-Nov-19 10:49 33.872164 -117.833697 73 3980ft 119kts
27-Nov-19 10:50 33.886432 -117.798057 72 3982ft 117kts
27-Nov-19 10:51 33.900532 -117.762804 72 3984ft 115kts
27-Nov-19 10:52 33.914414 -117.728060 72 3986ft 114kts
27-Nov-19 10:53 33.938072 -117.702283 33 3989ft 121kts
27-Nov-19 10:54 33.967844 -117.685135 10 3821ft 116kts
27-Nov-19 10:55 33.971679 -117.710583 188 3611ft 100kts
27-Nov-19 10:56 33.946718 -117.710625 174 3578ft 80kts
27-Nov-19 10:57 33.925265 -117.711689 183 3578ft 76kts
27-Nov-19 10:58 33.905915 -117.722230 201 3578ft 77kts
27-Nov-19 10:59 33.885606 -117.735377 198 3660ft 83kts
27-Nov-19 11:00 33.863492 -117.749459 200 3674ft 92kts
27-Nov-19 11:01 33.840640 -117.764141 200 3251ft 93kts
27-Nov-19 11:02 33.819500 -117.777544 198 2573ft 80kts
27-Nov-19 11:03 33.800720 -117.791275 203 2219ft 72kts
27-Nov-19 11:04 33.780658 -117.801205 191 2294ft 81kts
27-Nov-19 11:05 33.761834 -117.815299 200 1815ft 77kts
27-Nov-19 11:06 33.742701 -117.825861 202 1473ft 72kts
27-Nov-19 11:07 33.723840 -117.837918 205 994ft 80kts
27-Nov-19 11:08 33.704746 -117.850334 199 596ft 74kts
27-Nov-19 11:09 33.688016 -117.861126 200 228ft 59kts
27-Nov-19 11:10 33.677944 -117.867999 288 60ft 8kts
27-Nov-19 11:11 33.678069 -117.868662 254 60ft 7kts
27-Nov-19 11:12 33.676263 -117.870631 98 60ft 0kts
27-Nov-19 11:13 33.676263 -117.870631 98 60ft 0kts
27-Nov-19 11:14 33.676263 -117.870631 98 60ft 0kts
27-Nov-19 11:15 33.676263 -117.870631 98 60ft 0kts
27-Nov-19 11:16 33.676263 -117.870631 98 60ft 0kts
27-Nov-19 11:17 33.676263 -117.870631 98 60ft 0kts
27-Nov-19 11:18 33.676263 -117.870631 98 60ft 0kts
27-Nov-19 11:19 33.676263 -117.870631 98 60ft 0kts
27-Nov-19 11:20 33.676263 -117.870631 98 60ft 0kts

Navigation Log

Ident Type
Flight plan parsing failed, navigation log unavailable